createdAt,value
2022-12-22T00:00:01.394Z,78.26
2022-12-22T00:02:27.950Z,78.78
2022-12-22T00:04:54.492Z,78.73
2022-12-22T00:07:21.039Z,78.84
2022-12-22T00:09:47.536Z,78.91
2022-12-22T00:12:14.037Z,79.40
2022-12-22T00:14:40.511Z,78.63
2022-12-22T00:17:07.018Z,79.48
2022-12-22T00:19:33.474Z,79.83
2022-12-22T00:22:00.002Z,79.80
2022-12-22T00:24:27.644Z,80.06
2022-12-22T00:26:54.087Z,80.02
2022-12-22T00:29:20.561Z,80.29
2022-12-22T00:31:46.989Z,80.63
2022-12-22T00:34:13.470Z,80.60
2022-12-22T00:36:39.914Z,79.15
2022-12-22T00:39:06.330Z,80.24
2022-12-22T00:41:32.824Z,80.69
2022-12-22T00:43:59.263Z,80.44
2022-12-22T00:46:25.782Z,80.70
2022-12-22T00:48:52.243Z,80.73
2022-12-22T00:51:18.670Z,80.74
2022-12-22T00:53:45.132Z,80.54
2022-12-22T00:56:12.558Z,79.84
2022-12-22T00:58:39.041Z,79.35
2022-12-22T01:01:05.500Z,79.95
2022-12-22T01:03:32.067Z,80.61
2022-12-22T01:05:58.557Z,80.54
2022-12-22T01:08:24.983Z,80.62
2022-12-22T01:10:51.460Z,80.46
2022-12-22T01:13:17.894Z,80.40
2022-12-22T01:15:44.450Z,80.44
2022-12-22T01:18:10.923Z,80.31
2022-12-22T01:20:37.364Z,80.04
2022-12-22T01:23:03.804Z,80.37
2022-12-22T01:25:30.203Z,80.17
2022-12-22T01:27:56.643Z,80.15
2022-12-22T01:30:23.058Z,79.55
2022-12-22T01:32:49.515Z,80.00
2022-12-22T01:35:15.917Z,79.60
2022-12-22T01:37:42.340Z,79.90
2022-12-22T01:40:08.822Z,79.59
2022-12-22T01:42:35.230Z,79.50
2022-12-22T01:45:01.643Z,79.18
2022-12-22T01:47:28.084Z,79.15
2022-12-22T01:49:54.482Z,79.38
2022-12-22T01:52:20.933Z,79.92
2022-12-22T01:54:47.377Z,79.37
2022-12-22T01:57:13.828Z,79.61
2022-12-22T01:59:40.294Z,78.88
2022-12-22T02:02:06.993Z,78.73
2022-12-22T02:04:33.491Z,78.34
2022-12-22T02:07:00.606Z,77.16
2022-12-22T02:09:27.394Z,77.87
2022-12-22T02:11:53.812Z,78.52
2022-12-22T02:14:24.727Z,78.68
2022-12-22T02:16:54.295Z,79.64
2022-12-22T02:19:20.727Z,80.12
2022-12-22T02:21:47.154Z,80.34
2022-12-22T02:24:13.618Z,78.75
2022-12-22T02:26:40.069Z,79.06
2022-12-22T02:29:06.478Z,78.59
2022-12-22T02:31:32.960Z,78.86
2022-12-22T02:33:59.579Z,78.12
2022-12-22T02:36:26.060Z,79.03
2022-12-22T02:38:52.494Z,79.02
2022-12-22T02:41:18.929Z,78.20
2022-12-22T02:43:45.399Z,78.11
2022-12-22T02:46:11.913Z,78.20
2022-12-22T02:48:38.455Z,77.43
2022-12-22T02:51:04.900Z,77.98
2022-12-22T02:53:31.348Z,77.95
2022-12-22T02:55:57.772Z,77.65
2022-12-22T02:58:24.329Z,76.89
2022-12-22T03:00:50.791Z,77.58
2022-12-22T03:03:17.528Z,77.93
2022-12-22T03:05:44.124Z,77.67
2022-12-22T03:08:10.572Z,77.17
2022-12-22T03:10:37.054Z,77.16
2022-12-22T03:13:03.478Z,76.11
2022-12-22T03:15:29.889Z,76.25
2022-12-22T03:17:56.323Z,76.65
2022-12-22T03:20:22.789Z,76.45
2022-12-22T03:22:50.822Z,76.93
2022-12-22T03:25:23.139Z,75.48
2022-12-22T03:27:49.582Z,74.42
2022-12-22T03:30:16.047Z,76.19
2022-12-22T03:32:42.517Z,74.67
2022-12-22T03:35:09.121Z,75.70
2022-12-22T03:37:37.832Z,76.17
2022-12-22T03:40:04.233Z,76.12
2022-12-22T03:42:31.032Z,75.46
2022-12-22T03:44:57.461Z,75.26
2022-12-22T03:47:23.934Z,74.56
2022-12-22T03:49:51.427Z,76.18
2022-12-22T03:52:18.077Z,76.02
2022-12-22T03:54:44.996Z,76.13
2022-12-22T03:57:11.416Z,75.42
2022-12-22T03:59:37.869Z,76.86
2022-12-22T04:02:04.512Z,76.66
2022-12-22T04:04:31.504Z,76.16
2022-12-22T04:06:57.902Z,75.89
2022-12-22T04:09:24.383Z,76.58
2022-12-22T04:11:51.029Z,75.34
2022-12-22T04:14:17.585Z,75.36
2022-12-22T04:16:44.109Z,76.47
2022-12-22T04:19:10.772Z,75.33
2022-12-22T04:21:37.214Z,74.55
2022-12-22T04:24:03.673Z,74.12
2022-12-22T04:26:30.098Z,73.44
2022-12-22T04:28:56.602Z,74.65
2022-12-22T04:31:23.113Z,74.18
2022-12-22T04:33:49.584Z,72.63
2022-12-22T04:36:16.031Z,73.77
2022-12-22T04:38:42.473Z,74.06
2022-12-22T04:41:08.923Z,74.96
2022-12-22T04:43:35.329Z,74.42
2022-12-22T04:46:01.812Z,75.13
2022-12-22T04:48:28.295Z,75.65
2022-12-22T04:50:54.749Z,76.21
2022-12-22T04:53:21.190Z,75.58
2022-12-22T04:55:47.639Z,75.17
2022-12-22T04:58:14.070Z,75.66
2022-12-22T05:00:40.538Z,75.77
2022-12-22T05:03:07.139Z,75.19
2022-12-22T05:05:33.625Z,72.88
2022-12-22T05:08:00.114Z,74.84
2022-12-22T05:10:26.628Z,75.75
2022-12-22T05:12:53.057Z,73.50
2022-12-22T05:15:19.546Z,74.18
2022-12-22T05:17:45.985Z,76.18
2022-12-22T05:20:12.412Z,76.10
2022-12-22T05:22:38.880Z,77.03
2022-12-22T05:25:06.173Z,77.03
2022-12-22T05:27:32.592Z,75.55
2022-12-22T05:29:58.993Z,76.41
2022-12-22T05:32:25.422Z,75.79
2022-12-22T05:34:51.863Z,76.19
2022-12-22T05:37:18.279Z,75.76
2022-12-22T05:39:44.691Z,72.09
2022-12-22T05:42:11.136Z,74.50
2022-12-22T05:44:37.621Z,75.43
2022-12-22T05:47:04.019Z,75.11
2022-12-22T05:49:30.417Z,73.51
2022-12-22T05:51:56.862Z,74.23
2022-12-22T05:54:23.273Z,73.90
2022-12-22T05:56:49.665Z,73.43
2022-12-22T05:59:16.081Z,73.99
2022-12-22T06:01:42.621Z,72.34
2022-12-22T06:04:09.154Z,72.61
2022-12-22T06:06:35.653Z,73.67
2022-12-22T06:09:02.075Z,77.39
2022-12-22T06:11:28.537Z,76.83
2022-12-22T06:13:54.982Z,77.42
2022-12-22T06:16:21.536Z,76.83
2022-12-22T06:18:48.019Z,77.08
2022-12-22T06:21:14.513Z,76.29
2022-12-22T06:23:40.965Z,77.69
2022-12-22T06:26:07.445Z,77.65
2022-12-22T06:28:33.845Z,78.88
2022-12-22T06:31:00.341Z,77.51
2022-12-22T06:33:26.869Z,78.18
2022-12-22T06:35:58.697Z,79.13
2022-12-22T06:38:25.895Z,80.27
2022-12-22T06:40:52.357Z,79.49
2022-12-22T06:43:18.811Z,77.46
2022-12-22T06:45:45.247Z,74.87
2022-12-22T06:48:11.662Z,77.25
2022-12-22T06:50:38.149Z,78.72
2022-12-22T06:53:04.619Z,79.31
2022-12-22T06:55:31.266Z,80.22
2022-12-22T06:57:57.743Z,79.23
2022-12-22T07:00:24.258Z,79.45
2022-12-22T07:02:50.796Z,79.84
2022-12-22T07:05:17.303Z,79.69
2022-12-22T07:07:43.769Z,78.77
2022-12-22T07:10:10.186Z,78.97
2022-12-22T07:12:38.675Z,78.49
2022-12-22T07:15:05.115Z,78.93
2022-12-22T07:17:31.567Z,79.06
2022-12-22T07:19:58.009Z,78.94
2022-12-22T07:22:29.786Z,78.41
2022-12-22T07:24:57.338Z,78.59
2022-12-22T07:27:23.824Z,78.29
2022-12-22T07:29:50.271Z,78.41
2022-12-22T07:32:16.739Z,78.59
2022-12-22T07:34:43.210Z,78.09
2022-12-22T07:37:09.679Z,77.39
2022-12-22T07:39:36.149Z,78.83
2022-12-22T07:42:02.668Z,77.24
2022-12-22T07:44:29.142Z,77.61
2022-12-22T07:46:55.727Z,77.46
2022-12-22T07:49:22.231Z,76.99
2022-12-22T07:51:48.819Z,77.04
2022-12-22T07:54:15.345Z,78.52
2022-12-22T07:56:41.819Z,78.59
2022-12-22T07:59:08.374Z,77.63
2022-12-22T08:01:35.114Z,77.98
2022-12-22T08:04:01.643Z,78.63
2022-12-22T08:06:28.108Z,78.96
2022-12-22T08:08:54.723Z,78.48
2022-12-22T08:11:21.136Z,77.95
2022-12-22T08:13:47.628Z,78.15
2022-12-22T08:16:14.120Z,78.20
2022-12-22T08:18:40.908Z,77.03
2022-12-22T08:21:07.421Z,78.37
2022-12-22T08:23:34.081Z,78.17
2022-12-22T08:26:00.682Z,77.54
2022-12-22T08:28:27.099Z,78.90
2022-12-22T08:30:53.804Z,77.12
2022-12-22T08:33:20.328Z,77.52
2022-12-22T08:35:47.636Z,77.52
2022-12-22T08:38:14.178Z,75.65
2022-12-22T08:40:40.680Z,77.62
2022-12-22T08:43:07.130Z,78.04
2022-12-22T08:45:33.666Z,77.15
2022-12-22T08:48:00.868Z,76.85
2022-12-22T08:50:27.671Z,75.92
2022-12-22T08:52:56.984Z,74.12
2022-12-22T08:55:25.741Z,75.34
2022-12-22T08:57:55.970Z,72.20
2022-12-22T09:00:23.702Z,76.26
2022-12-22T09:02:50.278Z,76.76
2022-12-22T09:05:17.850Z,75.25
2022-12-22T09:07:44.537Z,74.05
2022-12-22T09:10:11.031Z,73.21
2022-12-22T09:12:37.718Z,71.41
2022-12-22T09:15:04.500Z,74.68
2022-12-22T09:17:33.284Z,75.28
2022-12-22T09:19:59.948Z,72.42
2022-12-22T09:22:28.567Z,73.82
2022-12-22T09:24:55.427Z,73.21
2022-12-22T09:27:21.867Z,74.37
2022-12-22T09:29:48.347Z,72.11
2022-12-22T09:32:15.112Z,74.26
2022-12-22T09:34:41.631Z,72.36
2022-12-22T09:37:08.032Z,73.87
2022-12-22T09:39:34.634Z,72.94
2022-12-22T09:42:01.056Z,71.44
2022-12-22T09:44:27.535Z,71.58
2022-12-22T09:46:54.381Z,71.52
2022-12-22T09:49:20.849Z,71.06
2022-12-22T09:51:47.265Z,72.42
2022-12-22T09:54:13.741Z,73.56
2022-12-22T09:56:40.165Z,73.98
2022-12-22T09:59:06.628Z,71.64
2022-12-22T10:01:33.166Z,70.48
2022-12-22T10:04:01.009Z,73.44
2022-12-22T10:06:27.673Z,73.55
2022-12-22T10:08:54.370Z,73.44
2022-12-22T10:11:20.838Z,75.04
2022-12-22T10:13:47.324Z,73.50
2022-12-22T10:16:13.886Z,73.21
2022-12-22T10:18:40.310Z,73.02
2022-12-22T10:21:06.788Z,69.51
2022-12-22T10:23:38.885Z,66.82
2022-12-22T10:28:54.444Z,74.00
2022-12-22T10:31:21.047Z,74.85
2022-12-22T10:33:47.965Z,75.56
2022-12-22T10:36:14.441Z,75.78
2022-12-22T10:38:41.089Z,76.30
2022-12-22T10:41:07.894Z,74.13
2022-12-22T10:43:34.418Z,77.56
2022-12-22T10:46:01.382Z,74.87
2022-12-22T10:48:27.898Z,77.47
2022-12-22T10:50:54.307Z,77.82
2022-12-22T10:53:20.739Z,77.79
2022-12-22T10:55:47.223Z,76.68
2022-12-22T10:58:14.157Z,75.56
2022-12-22T11:00:41.753Z,78.25
2022-12-22T11:03:09.487Z,78.58
2022-12-22T11:05:36.955Z,78.83
2022-12-22T11:08:03.600Z,79.02
2022-12-22T11:10:30.195Z,80.30
2022-12-22T11:12:56.779Z,79.71
2022-12-22T11:15:25.117Z,79.43
2022-12-22T11:17:51.980Z,79.13
2022-12-22T11:20:18.586Z,79.43
2022-12-22T11:22:45.203Z,79.98
2022-12-22T11:25:13.482Z,80.10
2022-12-22T11:27:45.775Z,80.28
2022-12-22T11:30:12.645Z,80.25
2022-12-22T11:32:39.045Z,80.41
2022-12-22T11:35:05.526Z,80.38
2022-12-22T11:37:31.993Z,80.17
2022-12-22T11:39:59.712Z,80.65
2022-12-22T11:42:26.252Z,79.06
2022-12-22T11:44:52.671Z,79.60
2022-12-22T11:47:19.145Z,80.58
2022-12-22T11:49:47.818Z,79.94
2022-12-22T11:52:14.264Z,79.16
2022-12-22T11:54:40.694Z,79.89
2022-12-22T11:57:07.155Z,78.71
2022-12-22T11:59:34.159Z,79.12
2022-12-22T12:02:00.678Z,79.46
2022-12-22T12:04:27.174Z,79.92
2022-12-22T12:06:53.624Z,79.52
2022-12-22T12:09:20.091Z,78.19
2022-12-22T12:11:46.492Z,78.58
2022-12-22T12:14:12.914Z,79.17
2022-12-22T12:16:39.464Z,80.69
2022-12-22T12:19:06.062Z,80.36
2022-12-22T12:21:32.493Z,77.94
2022-12-22T12:23:58.896Z,77.65
2022-12-22T12:26:25.430Z,78.50
2022-12-22T12:28:51.839Z,78.40
2022-12-22T12:31:24.311Z,76.88
2022-12-22T12:33:52.620Z,78.58
2022-12-22T12:36:19.110Z,76.88
2022-12-22T12:41:31.977Z,77.75
2022-12-22T12:43:58.410Z,78.23
2022-12-22T12:46:24.978Z,77.95
2022-12-22T12:48:51.467Z,77.85
2022-12-22T12:51:17.938Z,77.70
2022-12-22T12:53:44.341Z,77.32
2022-12-22T12:56:10.783Z,77.71
2022-12-22T12:58:37.343Z,76.92
2022-12-22T13:01:03.815Z,78.50
2022-12-22T13:04:01.715Z,78.20
2022-12-22T13:06:16.666Z,76.80
2022-12-22T13:08:43.062Z,76.10
2022-12-22T13:11:09.490Z,75.44
2022-12-22T13:13:35.999Z,76.16
2022-12-22T13:16:02.580Z,73.59
2022-12-22T13:18:29.163Z,74.92
2022-12-22T13:20:55.881Z,75.55
2022-12-22T13:23:29.429Z,76.85
2022-12-22T13:25:55.928Z,77.21
2022-12-22T13:28:22.384Z,77.81
2022-12-22T13:30:48.877Z,76.33
2022-12-22T13:33:15.318Z,75.66
2022-12-22T13:35:47.593Z,76.60
2022-12-22T13:38:14.827Z,76.29
2022-12-22T13:40:41.291Z,76.55
2022-12-22T13:43:07.965Z,76.12
2022-12-22T13:45:34.525Z,74.75
2022-12-22T13:48:02.876Z,76.03
2022-12-22T13:50:29.425Z,76.66
2022-12-22T13:52:55.988Z,76.56
2022-12-22T13:55:22.576Z,76.08
2022-12-22T13:57:53.280Z,74.40
2022-12-22T14:00:22.987Z,76.31
2022-12-22T14:02:49.604Z,75.92
2022-12-22T14:05:16.188Z,75.19
2022-12-22T14:07:42.616Z,76.00
2022-12-22T14:10:09.062Z,75.01
2022-12-22T14:12:35.585Z,74.44
2022-12-22T14:15:02.166Z,74.83
2022-12-22T14:17:28.704Z,77.09
2022-12-22T14:19:55.164Z,75.63
2022-12-22T14:22:22.019Z,76.04
2022-12-22T14:24:48.557Z,76.27
2022-12-22T14:27:15.232Z,76.33
2022-12-22T14:29:41.892Z,76.96
2022-12-22T14:32:08.873Z,76.12
2022-12-22T14:34:35.501Z,74.38
2022-12-22T14:37:02.178Z,76.28
2022-12-22T14:39:28.849Z,75.24
2022-12-22T14:41:55.488Z,77.40
2022-12-22T14:44:22.182Z,75.98
2022-12-22T14:46:48.695Z,75.87
2022-12-22T14:49:15.413Z,73.97
2022-12-22T14:51:42.081Z,74.06
2022-12-22T14:54:08.696Z,74.30
2022-12-22T14:56:35.754Z,75.97
2022-12-22T14:59:02.514Z,73.74
2022-12-22T15:01:29.360Z,74.78
2022-12-22T15:03:56.106Z,76.45
2022-12-22T15:06:22.859Z,76.85
2022-12-22T15:08:49.252Z,76.47
2022-12-22T15:11:15.675Z,77.46
2022-12-22T15:13:42.097Z,77.49
2022-12-22T15:16:08.732Z,77.39
2022-12-22T15:18:35.221Z,77.58
2022-12-22T15:21:01.764Z,77.48
2022-12-22T15:23:28.307Z,78.09
2022-12-22T15:25:56.001Z,78.28
2022-12-22T15:28:22.485Z,79.29
2022-12-22T15:30:49.168Z,79.21
2022-12-22T15:33:15.669Z,79.73
2022-12-22T15:35:42.151Z,79.62
2022-12-22T15:38:08.569Z,79.29
2022-12-22T15:40:35.004Z,79.42
2022-12-22T15:43:01.481Z,79.11
2022-12-22T15:45:28.678Z,78.58
2022-12-22T15:47:55.297Z,79.67
2022-12-22T15:50:21.782Z,79.35
2022-12-22T15:52:48.220Z,78.40
2022-12-22T15:55:14.656Z,79.14
2022-12-22T15:57:41.137Z,78.46
2022-12-22T16:00:07.587Z,79.51
2022-12-22T16:02:34.139Z,78.31
2022-12-22T16:05:00.665Z,75.77
2022-12-22T16:07:27.094Z,77.38
2022-12-22T16:09:53.539Z,78.46
2022-12-22T16:12:20.050Z,79.12
2022-12-22T16:14:50.234Z,78.56
2022-12-22T16:17:17.351Z,78.38
2022-12-22T16:19:43.802Z,77.51
2022-12-22T16:22:10.213Z,78.21
2022-12-22T16:24:36.661Z,76.32
2022-12-22T16:27:03.141Z,78.19
2022-12-22T16:29:29.650Z,75.87
2022-12-22T16:31:56.136Z,76.87
2022-12-22T16:34:22.616Z,76.79
2022-12-22T16:36:49.077Z,75.87
2022-12-22T16:39:15.508Z,76.60
2022-12-22T16:41:41.926Z,76.84
2022-12-22T16:44:08.377Z,77.42
2022-12-22T16:46:34.956Z,76.15
2022-12-22T16:49:01.532Z,74.41
2022-12-22T16:51:28.001Z,76.16
2022-12-22T16:53:54.412Z,76.59
2022-12-22T16:56:20.886Z,76.13
2022-12-22T16:58:47.329Z,76.22
2022-12-22T17:01:13.761Z,75.51
2022-12-22T17:03:40.315Z,75.71
2022-12-22T17:06:06.816Z,76.79
2022-12-22T17:08:33.287Z,74.09
2022-12-22T17:11:03.364Z,76.37
2022-12-22T17:13:34.601Z,74.29
2022-12-22T17:16:01.089Z,74.46
2022-12-22T17:18:27.539Z,76.12
2022-12-22T17:20:53.983Z,75.56
2022-12-22T17:23:20.448Z,73.96
2022-12-22T17:25:46.915Z,75.18
2022-12-22T17:28:13.338Z,77.04
2022-12-22T17:30:39.774Z,76.00
2022-12-22T17:33:06.187Z,74.09
2022-12-22T17:35:32.660Z,75.60
2022-12-22T17:37:59.113Z,75.58
2022-12-22T17:40:25.711Z,75.07
2022-12-22T17:42:52.151Z,77.19
2022-12-22T17:45:18.634Z,75.76
2022-12-22T17:47:45.094Z,77.07
2022-12-22T17:50:11.551Z,76.71
2022-12-22T17:52:37.971Z,76.89
2022-12-22T17:55:04.409Z,78.40
2022-12-22T17:57:30.858Z,78.23
2022-12-22T17:59:57.274Z,78.11
2022-12-22T18:02:23.880Z,78.90
2022-12-22T18:04:50.489Z,78.41
2022-12-22T18:07:16.906Z,79.07
2022-12-22T18:09:43.341Z,79.10
2022-12-22T18:12:09.802Z,79.38
2022-12-22T18:14:36.260Z,79.13
2022-12-22T18:17:02.710Z,79.83
2022-12-22T18:19:29.145Z,79.86
2022-12-22T18:21:55.551Z,79.86
2022-12-22T18:24:22.094Z,80.32
2022-12-22T18:26:48.507Z,81.91
2022-12-22T18:29:14.939Z,81.69
2022-12-22T18:31:41.556Z,81.53
2022-12-22T18:34:08.054Z,81.80
2022-12-22T18:36:34.467Z,82.27
2022-12-22T18:39:02.361Z,82.88
2022-12-22T18:41:28.829Z,81.44
2022-12-22T18:43:55.288Z,81.62
2022-12-22T18:46:21.780Z,81.51
2022-12-22T18:48:48.253Z,83.21
2022-12-22T18:51:14.678Z,83.23
2022-12-22T18:53:41.101Z,83.33
2022-12-22T18:56:07.513Z,83.17
2022-12-22T18:58:34.000Z,83.12
2022-12-22T19:01:00.504Z,83.71
2022-12-22T19:03:27.048Z,83.88
2022-12-22T19:05:53.486Z,83.97
2022-12-22T19:08:23.242Z,83.83
2022-12-22T19:10:49.674Z,83.60
2022-12-22T19:13:16.816Z,83.78
2022-12-22T19:15:44.412Z,84.25
2022-12-22T19:18:11.289Z,83.96
2022-12-22T19:20:37.731Z,84.05
2022-12-22T19:23:04.167Z,84.22
2022-12-22T19:25:30.616Z,84.11
2022-12-22T19:27:57.097Z,84.09
2022-12-22T19:30:23.515Z,84.06
2022-12-22T19:32:50.019Z,84.23
2022-12-22T19:35:16.588Z,84.88
2022-12-22T19:37:43.082Z,84.67
2022-12-22T19:40:13.015Z,84.91
2022-12-22T19:42:39.569Z,84.61
2022-12-22T19:45:11.530Z,84.65
2022-12-22T19:47:42.052Z,84.53
2022-12-22T19:50:09.545Z,84.16
2022-12-22T19:52:36.207Z,84.39
2022-12-22T19:55:02.952Z,85.09
2022-12-22T19:57:30.539Z,84.53
2022-12-22T19:59:57.034Z,84.06
2022-12-22T20:02:23.598Z,84.26
2022-12-22T20:04:50.419Z,83.38
2022-12-22T20:07:17.413Z,84.45
2022-12-22T20:09:44.304Z,84.24
2022-12-22T20:12:12.595Z,84.34
2022-12-22T20:14:41.178Z,84.45
2022-12-22T20:17:07.681Z,83.93
2022-12-22T20:19:34.383Z,83.95
2022-12-22T20:22:00.892Z,83.53
2022-12-22T20:24:29.693Z,84.28
2022-12-22T20:26:56.393Z,83.79
2022-12-22T20:29:23.017Z,84.06
2022-12-22T20:31:50.824Z,83.71
2022-12-22T20:34:18.416Z,83.82
2022-12-22T20:36:45.090Z,82.73
2022-12-22T20:39:12.778Z,83.84
2022-12-22T20:41:39.610Z,83.56
2022-12-22T20:44:06.027Z,83.85
2022-12-22T20:46:32.644Z,83.76
2022-12-22T20:48:59.231Z,84.17
2022-12-22T20:51:25.704Z,84.16
2022-12-22T20:53:52.191Z,83.87
2022-12-22T20:56:18.620Z,83.83
2022-12-22T20:58:45.107Z,83.72
2022-12-22T21:01:11.635Z,83.31
2022-12-22T21:03:38.157Z,83.45
2022-12-22T21:06:04.596Z,83.77
2022-12-22T21:08:31.890Z,84.19
2022-12-22T21:10:58.442Z,83.88
2022-12-22T21:13:24.844Z,84.37
2022-12-22T21:15:51.261Z,84.13
2022-12-22T21:18:17.757Z,84.51
2022-12-22T21:20:44.274Z,84.69
2022-12-22T21:23:10.678Z,84.41
2022-12-22T21:25:40.632Z,84.42
2022-12-22T21:28:09.660Z,84.38
2022-12-22T21:30:36.115Z,84.57
2022-12-22T21:33:02.743Z,84.11
2022-12-22T21:35:29.199Z,84.04
2022-12-22T21:37:55.648Z,83.73
2022-12-22T21:40:22.082Z,84.13
2022-12-22T21:42:48.499Z,83.96
2022-12-22T21:45:16.351Z,84.13
2022-12-22T21:47:42.790Z,83.98
2022-12-22T21:50:09.188Z,84.47
2022-12-22T21:52:35.614Z,84.33
2022-12-22T21:55:02.063Z,84.54
2022-12-22T21:57:28.492Z,84.19
2022-12-22T21:59:54.953Z,84.55
2022-12-22T22:02:21.580Z,84.18
2022-12-22T22:04:54.023Z,83.88
2022-12-22T22:07:21.193Z,84.05
2022-12-22T22:09:47.816Z,84.25
2022-12-22T22:12:14.300Z,83.87
2022-12-22T22:14:40.742Z,83.92
2022-12-22T22:17:07.220Z,84.15
2022-12-22T22:19:33.644Z,84.60
2022-12-22T22:22:00.108Z,84.55
2022-12-22T22:24:26.541Z,84.62
2022-12-22T22:26:52.954Z,85.02
2022-12-22T22:29:19.343Z,84.31
2022-12-22T22:31:46.015Z,84.52
2022-12-22T22:34:12.522Z,84.75
2022-12-22T22:36:38.948Z,84.59
2022-12-22T22:39:05.337Z,84.19
2022-12-22T22:41:35.210Z,84.23
2022-12-22T22:44:04.212Z,84.09
2022-12-22T22:46:30.703Z,83.57
2022-12-22T22:48:57.138Z,83.97
2022-12-22T22:51:23.548Z,83.95
2022-12-22T22:53:49.973Z,84.25
2022-12-22T22:56:16.387Z,84.03
2022-12-22T22:58:42.795Z,84.25
2022-12-22T23:01:09.307Z,83.92
2022-12-22T23:03:35.802Z,84.35
2022-12-22T23:06:02.432Z,84.71
2022-12-22T23:08:28.872Z,84.35
2022-12-22T23:10:55.302Z,83.94
2022-12-22T23:13:21.703Z,84.46
2022-12-22T23:15:48.185Z,84.17
2022-12-22T23:18:14.637Z,84.15
2022-12-22T23:20:41.038Z,84.28
2022-12-22T23:23:07.491Z,84.04
2022-12-22T23:25:33.959Z,84.25
2022-12-22T23:28:00.381Z,84.05
2022-12-22T23:30:26.822Z,83.84
2022-12-22T23:32:53.255Z,83.85
2022-12-22T23:35:19.638Z,83.99
2022-12-22T23:37:46.041Z,84.18
2022-12-22T23:40:50.410Z,84.28
2022-12-22T23:42:58.820Z,83.48
2022-12-22T23:45:25.228Z,84.27
2022-12-22T23:47:51.627Z,83.33
2022-12-22T23:50:18.027Z,84.07
2022-12-22T23:52:49.206Z,84.00
2022-12-22T23:55:15.909Z,83.75
2022-12-22T23:57:42.316Z,83.63
